createdAt,value
2019-04-06T00:01:51.175Z,78.25
2019-04-06T00:04:18.492Z,78.31
2019-04-06T00:06:45.384Z,78.04
2019-04-06T00:09:12.345Z,78.00
2019-04-06T00:11:39.325Z,78.39
2019-04-06T00:14:06.474Z,78.73
2019-04-06T00:16:33.552Z,78.65
2019-04-06T00:19:00.543Z,78.57
2019-04-06T00:21:27.729Z,78.62
2019-04-06T00:23:54.709Z,78.50
2019-04-06T00:26:21.582Z,78.58
2019-04-06T00:28:48.477Z,78.52
2019-04-06T00:31:29.710Z,78.53
2019-04-06T00:33:56.743Z,78.97
2019-04-06T00:36:25.459Z,78.89
2019-04-06T00:38:52.411Z,78.80
2019-04-06T00:41:19.523Z,78.25
2019-04-06T00:43:46.415Z,78.68
2019-04-06T00:46:13.518Z,78.99
2019-04-06T00:48:40.330Z,78.65
2019-04-06T00:51:08.326Z,78.52
2019-04-06T00:53:35.136Z,78.06
2019-04-06T00:56:02.288Z,78.39
2019-04-06T00:58:32.331Z,78.58
2019-04-06T01:00:59.303Z,78.60
2019-04-06T01:03:27.511Z,78.84
2019-04-06T01:05:55.674Z,79.15
2019-04-06T01:08:22.874Z,79.31
2019-04-06T01:10:51.065Z,79.00
2019-04-06T01:13:18.002Z,78.95
2019-04-06T01:15:45.711Z,78.69
2019-04-06T01:18:15.168Z,78.17
2019-04-06T01:20:44.727Z,77.66
2019-04-06T01:23:14.498Z,77.34
2019-04-06T01:25:41.759Z,78.12
2019-04-06T01:28:08.604Z,78.62
2019-04-06T01:30:35.804Z,78.76
2019-04-06T01:33:02.905Z,79.20
2019-04-06T01:35:32.224Z,79.26
2019-04-06T01:37:59.132Z,79.31
2019-04-06T01:40:25.945Z,78.77
2019-04-06T01:42:52.811Z,78.44
2019-04-06T01:45:19.635Z,78.07
2019-04-06T01:47:46.864Z,78.36
2019-04-06T01:50:13.847Z,79.19
2019-04-06T01:52:41.061Z,79.33
2019-04-06T01:55:08.654Z,78.69
2019-04-06T01:57:35.892Z,78.67
2019-04-06T02:00:07.512Z,78.81
2019-04-06T02:02:36.223Z,78.48
2019-04-06T02:05:05.857Z,78.35
2019-04-06T02:07:34.481Z,77.79
2019-04-06T02:10:01.396Z,77.22
2019-04-06T02:12:29.078Z,77.36
2019-04-06T02:14:58.507Z,77.34
2019-04-06T02:17:25.611Z,77.41
2019-04-06T02:19:52.492Z,77.73
2019-04-06T02:22:19.450Z,78.21
2019-04-06T02:24:46.334Z,78.55
2019-04-06T02:27:16.032Z,78.35
2019-04-06T02:29:43.079Z,78.31
2019-04-06T02:32:10.010Z,78.26
2019-04-06T02:34:42.442Z,78.22
2019-04-06T02:37:24.152Z,77.71
2019-04-06T02:39:53.538Z,77.65
2019-04-06T02:42:31.972Z,77.56
2019-04-06T02:44:59.118Z,77.93
2019-04-06T02:47:26.489Z,78.03
2019-04-06T02:49:53.688Z,78.29
2019-04-06T02:52:20.676Z,78.79
2019-04-06T02:54:47.765Z,78.60
2019-04-06T02:57:14.852Z,78.71
2019-04-06T02:59:41.757Z,78.77
2019-04-06T03:02:08.675Z,78.27
2019-04-06T03:04:35.790Z,77.74
2019-04-06T03:07:03.406Z,77.52
2019-04-06T03:09:30.501Z,77.59
2019-04-06T03:11:57.534Z,77.32
2019-04-06T03:14:24.638Z,77.36
2019-04-06T03:16:52.065Z,77.38
2019-04-06T03:19:19.418Z,77.37
2019-04-06T03:21:46.759Z,77.83
2019-04-06T03:24:14.251Z,77.63
2019-04-06T03:26:41.381Z,77.71
2019-04-06T03:29:08.502Z,77.10
2019-04-06T03:31:35.770Z,77.09
2019-04-06T03:34:03.118Z,77.14
2019-04-06T03:36:34.309Z,77.03
2019-04-06T03:39:01.826Z,77.16
2019-04-06T03:41:31.366Z,77.11
2019-04-06T03:43:58.255Z,76.90
2019-04-06T03:46:26.480Z,77.45
2019-04-06T03:48:56.254Z,77.50
2019-04-06T03:51:24.092Z,77.20
2019-04-06T03:53:51.317Z,77.28
2019-04-06T03:56:18.335Z,77.13
2019-04-06T03:58:45.493Z,77.04
2019-04-06T04:01:14.845Z,77.18
2019-04-06T04:03:43.624Z,76.79
2019-04-06T04:06:10.691Z,76.69
2019-04-06T04:08:37.687Z,76.56
2019-04-06T04:11:05.131Z,76.45
2019-04-06T04:13:32.037Z,76.62
2019-04-06T04:16:00.003Z,76.48
2019-04-06T04:18:27.052Z,76.33
2019-04-06T04:20:54.559Z,76.77
2019-04-06T04:23:23.304Z,77.00
2019-04-06T04:25:50.783Z,76.99
2019-04-06T04:28:19.992Z,77.06
2019-04-06T04:30:48.027Z,76.84
2019-04-06T04:33:16.516Z,76.46
2019-04-06T04:35:44.738Z,76.32
2019-04-06T04:38:13.370Z,76.55
2019-04-06T04:40:42.468Z,76.58
2019-04-06T04:43:09.600Z,76.23
2019-04-06T04:45:42.727Z,76.54
2019-04-06T04:48:10.067Z,76.79
2019-04-06T04:50:37.150Z,76.54
2019-04-06T04:53:07.789Z,76.87
2019-04-06T04:55:35.285Z,76.81
2019-04-06T04:58:03.118Z,76.65
2019-04-06T05:00:31.330Z,76.41
2019-04-06T05:02:58.695Z,76.60
2019-04-06T05:05:26.127Z,76.64
2019-04-06T05:07:53.005Z,76.89
2019-04-06T05:10:20.489Z,77.19
2019-04-06T05:12:47.396Z,76.97
2019-04-06T05:15:34.661Z,76.61
2019-04-06T05:18:02.023Z,76.47
2019-04-06T05:20:29.255Z,76.26
2019-04-06T05:22:56.194Z,76.13
2019-04-06T05:25:23.240Z,76.06
2019-04-06T05:27:52.199Z,76.05
2019-04-06T05:30:19.150Z,75.95
2019-04-06T05:32:46.074Z,76.03
2019-04-06T05:35:13.175Z,75.82
2019-04-06T05:37:40.075Z,75.78
2019-04-06T05:40:07.569Z,75.86
2019-04-06T05:42:34.588Z,76.22
2019-04-06T05:45:01.863Z,76.03
2019-04-06T05:47:28.927Z,76.29
2019-04-06T05:49:55.755Z,76.20
2019-04-06T05:52:22.660Z,76.03
2019-04-06T05:54:49.814Z,76.15
2019-04-06T05:57:16.766Z,76.33
2019-04-06T05:59:43.816Z,76.34
2019-04-06T06:02:10.827Z,76.24
2019-04-06T06:04:40.252Z,76.26
2019-04-06T06:07:06.423Z,76.70
2019-04-06T06:09:33.635Z,76.59
2019-04-06T06:12:00.523Z,76.35
2019-04-06T06:14:27.945Z,76.22
2019-04-06T06:16:54.830Z,76.42
2019-04-06T06:19:21.695Z,76.05
2019-04-06T06:21:48.871Z,75.95
2019-04-06T06:24:15.750Z,75.87
2019-04-06T06:26:42.557Z,75.87
2019-04-06T06:29:09.369Z,75.64
2019-04-06T06:31:38.521Z,75.50
2019-04-06T06:34:05.553Z,75.50
2019-04-06T06:36:34.869Z,75.19
2019-04-06T06:39:01.784Z,75.13
2019-04-06T06:41:28.801Z,75.18
2019-04-06T06:43:55.875Z,75.05
2019-04-06T06:46:22.782Z,74.87
2019-04-06T06:48:50.269Z,74.73
2019-04-06T06:51:18.289Z,74.70
2019-04-06T06:53:45.076Z,74.59
2019-04-06T06:56:12.243Z,74.62
2019-04-06T06:58:39.406Z,74.40
2019-04-06T07:01:06.620Z,74.12
2019-04-06T07:03:34.017Z,73.84
2019-04-06T07:06:01.162Z,73.83
2019-04-06T07:08:28.280Z,73.36
2019-04-06T07:10:56.271Z,73.48
2019-04-06T07:13:24.380Z,73.58
2019-04-06T07:15:51.195Z,73.51
2019-04-06T07:18:18.327Z,73.34
2019-04-06T07:20:47.113Z,73.25
2019-04-06T07:23:13.962Z,72.92
2019-04-06T07:25:40.889Z,72.61
2019-04-06T07:28:08.162Z,72.39
2019-04-06T07:30:35.180Z,72.04
2019-04-06T07:33:02.461Z,71.66
2019-04-06T07:35:29.631Z,71.50
2019-04-06T07:37:59.481Z,71.20
2019-04-06T07:40:29.824Z,71.02
2019-04-06T07:42:57.012Z,70.42
2019-04-06T07:45:26.533Z,69.71
2019-04-06T07:47:53.337Z,68.88
2019-04-06T07:50:20.586Z,68.11
2019-04-06T07:52:47.781Z,67.37
2019-04-06T07:55:15.946Z,66.33
2019-04-06T07:57:44.147Z,65.62
2019-04-06T08:00:11.737Z,65.06
2019-04-06T08:02:38.617Z,64.60
2019-04-06T08:05:06.122Z,64.15
2019-04-06T08:07:33.372Z,63.86
2019-04-06T08:10:02.919Z,63.73
2019-04-06T08:12:29.779Z,63.55
2019-04-06T08:14:57.514Z,63.44
2019-04-06T08:17:25.409Z,62.58
2019-04-06T08:19:52.390Z,61.16
2019-04-06T08:22:19.531Z,62.11
2019-04-06T08:24:46.324Z,61.36
2019-04-06T08:27:13.990Z,61.29
2019-04-06T08:29:41.447Z,60.96
2019-04-06T08:32:09.066Z,59.74
2019-04-06T08:34:36.354Z,60.01
2019-04-06T08:37:03.355Z,60.10
2019-04-06T08:39:31.139Z,59.85
2019-04-06T08:42:14.401Z,59.52
2019-04-06T08:45:04.301Z,59.77
2019-04-06T08:47:41.224Z,59.05
2019-04-06T08:50:08.889Z,58.98
2019-04-06T08:52:35.891Z,58.62
2019-04-06T08:55:06.001Z,58.03
2019-04-06T08:57:33.159Z,57.67
2019-04-06T09:00:00.287Z,57.31
2019-04-06T09:02:28.559Z,57.30
2019-04-06T09:04:56.002Z,56.51
2019-04-06T09:07:22.804Z,55.74
2019-04-06T09:09:50.368Z,55.36
2019-04-06T09:12:17.281Z,56.16
2019-04-06T09:14:44.807Z,55.82
2019-04-06T09:17:12.390Z,54.67
2019-04-06T09:19:41.153Z,54.63
2019-04-06T09:22:12.040Z,54.14
2019-04-06T09:24:39.298Z,53.43
2019-04-06T09:27:07.492Z,54.02
2019-04-06T09:29:35.354Z,54.23
2019-04-06T09:32:02.333Z,53.89
2019-04-06T09:34:31.127Z,53.07
2019-04-06T09:36:59.061Z,52.79
2019-04-06T09:39:26.086Z,52.59
2019-04-06T09:41:53.049Z,52.15
2019-04-06T09:44:36.716Z,52.36
2019-04-06T09:47:09.174Z,52.54
2019-04-06T09:49:42.275Z,52.98
2019-04-06T09:52:18.349Z,53.08
2019-04-06T09:54:50.860Z,53.01
2019-04-06T09:57:30.652Z,52.77
2019-04-06T10:00:01.972Z,51.47
2019-04-06T10:02:31.068Z,53.09
2019-04-06T10:05:18.808Z,52.69
2019-04-06T10:08:05.381Z,52.83
2019-04-06T10:10:51.764Z,51.74
2019-04-06T10:13:37.715Z,51.16
2019-04-06T10:16:09.228Z,51.74
2019-04-06T10:18:56.583Z,52.38
2019-04-06T10:21:25.921Z,52.25
2019-04-06T10:23:53.206Z,52.15
2019-04-06T10:26:25.181Z,52.07
2019-04-06T10:28:57.050Z,52.36
2019-04-06T10:31:42.710Z,52.80
2019-04-06T10:34:14.511Z,52.79
2019-04-06T10:36:54.221Z,52.78
2019-04-06T10:39:29.660Z,52.68
2019-04-06T10:41:58.800Z,52.46
2019-04-06T10:44:43.413Z,52.38
2019-04-06T10:47:11.051Z,51.92
2019-04-06T10:49:41.762Z,51.94
2019-04-06T10:52:09.283Z,52.06
2019-04-06T10:54:42.306Z,51.77
2019-04-06T10:57:11.158Z,51.62
2019-04-06T11:00:02.314Z,49.94
2019-04-06T11:02:35.876Z,49.12
2019-04-06T11:05:07.081Z,48.34
2019-04-06T11:07:42.206Z,49.18
2019-04-06T11:10:24.714Z,49.99
2019-04-06T11:12:51.542Z,49.82
2019-04-06T11:15:37.356Z,49.10
2019-04-06T11:18:26.247Z,49.28
2019-04-06T11:21:04.607Z,48.73
2019-04-06T11:23:34.310Z,48.24
2019-04-06T11:26:04.186Z,49.03
2019-04-06T11:28:33.355Z,49.28
2019-04-06T11:31:05.175Z,47.32
2019-04-06T11:33:35.531Z,47.43
2019-04-06T11:36:05.534Z,48.42
2019-04-06T11:38:45.154Z,48.65
2019-04-06T11:41:31.084Z,49.43
2019-04-06T11:44:04.041Z,50.32
2019-04-06T11:46:35.645Z,50.32
2019-04-06T11:49:09.251Z,46.54
2019-04-06T11:51:53.601Z,48.39
2019-04-06T11:54:30.341Z,47.11
2019-04-06T11:57:03.361Z,47.69
2019-04-06T11:59:31.944Z,46.93
2019-04-06T12:02:04.279Z,44.18
2019-04-06T12:04:49.981Z,45.78
2019-04-06T12:07:31.966Z,46.51
2019-04-06T12:10:03.655Z,47.85
2019-04-06T12:12:35.321Z,49.03
2019-04-06T12:15:05.185Z,49.86
2019-04-06T12:17:39.789Z,50.51
2019-04-06T12:20:18.830Z,51.14
2019-04-06T12:22:51.712Z,51.24
2019-04-06T12:25:24.607Z,51.26
2019-04-06T12:27:56.506Z,51.42
2019-04-06T12:30:38.685Z,50.58
2019-04-06T12:33:10.091Z,51.81
2019-04-06T12:35:41.706Z,51.90
2019-04-06T12:38:27.854Z,51.79
2019-04-06T12:41:13.420Z,51.81
2019-04-06T12:43:46.204Z,52.00
2019-04-06T12:46:31.056Z,52.08
2019-04-06T12:49:16.952Z,52.10
2019-04-06T12:51:53.066Z,51.98
2019-04-06T12:54:26.131Z,52.11
2019-04-06T12:56:58.220Z,52.25
2019-04-06T12:59:35.952Z,52.29
2019-04-06T13:02:11.279Z,52.34
2019-04-06T13:04:40.029Z,52.31
2019-04-06T13:07:25.276Z,52.25
2019-04-06T13:10:10.395Z,52.20
2019-04-06T13:12:42.892Z,52.17
2019-04-06T13:15:18.088Z,52.17
2019-04-06T13:17:46.827Z,52.20
2019-04-06T13:20:30.773Z,51.88
2019-04-06T13:23:00.539Z,51.30
2019-04-06T13:25:30.708Z,50.16
2019-04-06T13:28:17.053Z,48.88
2019-04-06T13:31:01.207Z,48.60
2019-04-06T13:33:23.003Z,48.58
2019-04-06T13:35:59.215Z,49.08
2019-04-06T13:38:27.080Z,49.47
2019-04-06T13:40:56.190Z,50.18
2019-04-06T13:43:42.248Z,50.48
2019-04-06T13:46:20.464Z,50.40
2019-04-06T13:49:05.497Z,50.12
2019-04-06T13:51:43.983Z,50.26
2019-04-06T13:54:22.555Z,50.14
2019-04-06T13:56:52.549Z,49.33
2019-04-06T13:59:21.257Z,49.18
2019-04-06T14:01:56.104Z,49.57
2019-04-06T14:04:39.382Z,50.09
2019-04-06T14:07:20.674Z,50.75
2019-04-06T14:09:58.812Z,51.18
2019-04-06T14:12:27.775Z,51.37
2019-04-06T14:15:00.932Z,51.43
2019-04-06T14:17:27.987Z,51.39
2019-04-06T14:19:58.249Z,51.23
2019-04-06T14:22:33.159Z,51.05
2019-04-06T14:25:15.449Z,50.79
2019-04-06T14:27:42.504Z,50.51
2019-04-06T14:30:10.256Z,50.55
2019-04-06T14:32:43.179Z,50.77
2019-04-06T14:35:21.395Z,50.90
2019-04-06T14:37:54.081Z,50.77
2019-04-06T14:40:40.240Z,50.50
2019-04-06T14:43:22.432Z,49.71
2019-04-06T14:46:10.116Z,49.87
2019-04-06T14:48:50.034Z,50.15
2019-04-06T14:51:35.733Z,50.41
2019-04-06T14:54:09.010Z,50.41
2019-04-06T14:56:44.988Z,49.85
2019-04-06T14:59:31.429Z,48.58
2019-04-06T15:02:06.623Z,49.43
2019-04-06T15:04:53.839Z,49.63
2019-04-06T15:07:30.870Z,49.29
2019-04-06T15:10:06.187Z,49.14
2019-04-06T15:12:52.592Z,49.34
2019-04-06T15:15:21.759Z,49.60
2019-04-06T15:17:49.940Z,49.87
2019-04-06T15:20:20.929Z,50.08
2019-04-06T15:22:50.018Z,50.23
2019-04-06T15:25:19.249Z,50.21
2019-04-06T15:27:46.186Z,50.20
2019-04-06T15:30:13.844Z,50.38
2019-04-06T15:32:44.640Z,50.41
2019-04-06T15:35:15.766Z,50.50
2019-04-06T15:37:55.100Z,50.59
2019-04-06T15:40:36.090Z,50.59
2019-04-06T15:43:07.884Z,50.58
2019-04-06T15:45:40.862Z,50.63
2019-04-06T15:48:36.389Z,50.69
2019-04-06T15:51:03.983Z,50.78
2019-04-06T15:53:31.301Z,50.79
2019-04-06T15:56:18.246Z,50.82
2019-04-06T15:59:04.274Z,50.79
2019-04-06T16:01:36.706Z,50.71
2019-04-06T16:04:22.886Z,50.80
2019-04-06T16:06:56.222Z,50.80
2019-04-06T16:09:25.400Z,50.87
2019-04-06T16:12:10.715Z,50.91
2019-04-06T16:14:55.469Z,50.93
2019-04-06T16:17:24.092Z,51.09
2019-04-06T16:20:06.981Z,51.18
2019-04-06T16:22:41.955Z,51.33
2019-04-06T16:25:29.610Z,51.30
2019-04-06T16:28:11.568Z,51.37
2019-04-06T16:30:47.173Z,51.47
2019-04-06T16:33:14.562Z,51.53
2019-04-06T16:35:45.251Z,51.56
2019-04-06T16:38:22.550Z,51.54
2019-04-06T16:41:09.520Z,51.39
2019-04-06T16:43:55.252Z,51.35
2019-04-06T16:46:41.760Z,51.50
2019-04-06T16:49:28.214Z,51.71
2019-04-06T16:52:06.128Z,51.72
2019-04-06T16:54:36.193Z,51.65
2019-04-06T16:57:06.728Z,51.69
2019-04-06T16:59:46.270Z,51.86
2019-04-06T17:02:32.097Z,51.93
2019-04-06T17:05:01.316Z,52.09
2019-04-06T17:07:30.347Z,52.30
2019-04-06T17:10:11.490Z,52.49
2019-04-06T17:12:40.404Z,52.50
2019-04-06T17:15:09.833Z,52.49
2019-04-06T17:17:55.982Z,52.53
2019-04-06T17:20:33.104Z,52.63
2019-04-06T17:23:05.536Z,52.63
2019-04-06T17:25:43.122Z,52.76
2019-04-06T17:28:19.614Z,52.93
2019-04-06T17:30:50.308Z,53.14
2019-04-06T17:33:22.556Z,53.57
2019-04-06T17:36:05.303Z,53.81
2019-04-06T17:38:38.778Z,53.96
2019-04-06T17:41:07.593Z,54.15
2019-04-06T17:43:40.371Z,54.56
2019-04-06T17:46:13.974Z,55.06
2019-04-06T17:48:41.095Z,55.49
2019-04-06T17:51:16.585Z,55.90
2019-04-06T17:53:47.930Z,56.50
2019-04-06T17:56:18.180Z,56.97
2019-04-06T17:59:03.028Z,57.19
2019-04-06T18:01:33.082Z,57.35
2019-04-06T18:04:05.092Z,57.52
2019-04-06T18:06:34.539Z,57.87
2019-04-06T18:09:22.051Z,58.44
2019-04-06T18:12:01.846Z,58.90
2019-04-06T18:14:29.105Z,59.21
2019-04-06T18:16:57.153Z,59.87
2019-04-06T18:19:25.987Z,60.23
2019-04-06T18:21:54.089Z,61.35
2019-04-06T18:24:21.472Z,61.75
2019-04-06T18:26:50.719Z,62.11
2019-04-06T18:29:18.440Z,61.84
2019-04-06T18:31:56.848Z,61.94
2019-04-06T18:34:25.099Z,62.30
2019-04-06T18:36:52.650Z,62.75
2019-04-06T18:39:25.484Z,62.98
2019-04-06T18:41:56.639Z,63.02
2019-04-06T18:44:42.424Z,62.90
2019-04-06T18:47:14.309Z,63.04
2019-04-06T18:49:44.298Z,64.88
2019-04-06T18:52:11.451Z,62.57
2019-04-06T18:54:40.259Z,62.45
2019-04-06T18:57:07.366Z,63.03
2019-04-06T18:59:34.877Z,63.33
2019-04-06T19:02:01.855Z,63.52
2019-04-06T19:04:29.638Z,63.99
2019-04-06T19:06:57.137Z,64.29
2019-04-06T19:09:25.821Z,64.37
2019-04-06T19:11:56.699Z,64.97
2019-04-06T19:14:23.706Z,65.73
2019-04-06T19:16:51.411Z,66.17
2019-04-06T19:19:19.245Z,66.46
2019-04-06T19:21:46.670Z,66.81
2019-04-06T19:24:14.350Z,67.14
2019-04-06T19:26:42.221Z,67.00
2019-04-06T19:29:09.619Z,66.96
2019-04-06T19:31:36.989Z,67.41
2019-04-06T19:34:05.967Z,67.33
2019-04-06T19:36:34.087Z,67.52
2019-04-06T19:39:01.746Z,67.71
2019-04-06T19:41:29.145Z,67.78
2019-04-06T19:43:58.926Z,68.08
2019-04-06T19:46:27.119Z,68.65
2019-04-06T19:48:55.013Z,68.68
2019-04-06T19:51:25.063Z,68.82
2019-04-06T19:53:52.678Z,68.54
2019-04-06T19:56:20.061Z,68.20
2019-04-06T19:58:48.085Z,68.67
2019-04-06T20:01:15.276Z,69.40
2019-04-06T20:03:46.217Z,69.87
2019-04-06T20:06:13.316Z,70.08
2019-04-06T20:08:41.080Z,70.10
2019-04-06T20:11:11.665Z,70.47
2019-04-06T20:13:39.058Z,71.10
2019-04-06T20:16:10.890Z,71.05
2019-04-06T20:18:37.930Z,71.12
2019-04-06T20:21:06.055Z,70.56
2019-04-06T20:23:33.560Z,69.96
2019-04-06T20:26:01.074Z,69.72
2019-04-06T20:28:32.100Z,69.72
2019-04-06T20:31:02.624Z,69.90
2019-04-06T20:33:30.747Z,70.08
2019-04-06T20:35:58.737Z,70.28
2019-04-06T20:38:28.211Z,70.30
2019-04-06T20:40:57.789Z,70.65
2019-04-06T20:43:25.028Z,70.48
2019-04-06T20:45:53.606Z,70.64
2019-04-06T20:48:23.096Z,70.38
2019-04-06T20:50:50.114Z,70.53
2019-04-06T20:53:18.161Z,70.59
2019-04-06T20:55:47.590Z,70.83
2019-04-06T20:58:17.600Z,70.89
2019-04-06T21:00:46.425Z,71.40
2019-04-06T21:03:13.919Z,72.32
2019-04-06T21:05:41.563Z,72.43
2019-04-06T21:08:11.170Z,72.11
2019-04-06T21:10:40.744Z,72.06
2019-04-06T21:13:13.499Z,72.21
2019-04-06T21:15:41.969Z,72.05
2019-04-06T21:18:09.631Z,71.93
2019-04-06T21:20:39.445Z,71.77
2019-04-06T21:23:07.338Z,72.07
2019-04-06T21:25:35.345Z,72.22
2019-04-06T21:28:02.912Z,72.35
2019-04-06T21:30:30.483Z,72.20
2019-04-06T21:32:58.093Z,72.49
2019-04-06T21:35:25.208Z,72.79
2019-04-06T21:37:52.807Z,73.02
2019-04-06T21:40:20.156Z,73.15
2019-04-06T21:42:51.402Z,73.35
2019-04-06T21:45:19.718Z,73.01
2019-04-06T21:47:47.794Z,72.69
2019-04-06T21:50:15.364Z,72.81
2019-04-06T21:52:44.049Z,73.04
2019-04-06T21:55:12.142Z,73.08
2019-04-06T21:57:40.479Z,72.59
2019-04-06T22:00:13.306Z,72.95
2019-04-06T22:02:42.449Z,72.80
2019-04-06T22:05:10.400Z,72.49
2019-04-06T22:07:47.274Z,72.71
2019-04-06T22:10:08.593Z,72.90
2019-04-06T22:12:36.591Z,72.88
2019-04-06T22:15:07.410Z,72.95
2019-04-06T22:17:35.189Z,73.19
2019-04-06T22:20:04.707Z,73.65
2019-04-06T22:22:35.537Z,73.82
2019-04-06T22:25:05.777Z,74.01
2019-04-06T22:27:34.538Z,73.97
2019-04-06T22:30:09.577Z,74.14
2019-04-06T22:32:39.305Z,74.14
2019-04-06T22:35:09.031Z,74.18
2019-04-06T22:37:36.224Z,73.83
2019-04-06T22:40:07.587Z,73.80
2019-04-06T22:42:35.283Z,74.12
2019-04-06T22:45:07.091Z,73.75
2019-04-06T22:47:34.778Z,73.76
2019-04-06T22:50:04.445Z,73.94
2019-04-06T22:52:32.032Z,73.96
2019-04-06T22:55:02.287Z,73.75
2019-04-06T22:57:29.537Z,74.29
2019-04-06T22:59:56.525Z,74.31
2019-04-06T23:02:28.140Z,74.00
2019-04-06T23:05:06.154Z,73.93
2019-04-06T23:07:36.054Z,73.85
2019-04-06T23:10:04.414Z,73.79
2019-04-06T23:12:32.869Z,74.26
2019-04-06T23:15:01.858Z,74.99
2019-04-06T23:17:31.863Z,74.64
2019-04-06T23:20:00.218Z,74.41
2019-04-06T23:22:28.576Z,74.64
2019-04-06T23:24:56.337Z,74.61
2019-04-06T23:27:26.053Z,74.06
2019-04-06T23:29:53.697Z,74.80
2019-04-06T23:32:22.207Z,75.17
2019-04-06T23:34:58.837Z,74.30
2019-04-06T23:37:19.547Z,73.95
2019-04-06T23:39:48.189Z,73.52
2019-04-06T23:42:18.017Z,73.62
2019-04-06T23:44:45.493Z,74.03
2019-04-06T23:47:13.752Z,74.02
2019-04-06T23:49:40.945Z,74.05
2019-04-06T23:52:08.563Z,73.78
2019-04-06T23:54:38.332Z,74.20
2019-04-06T23:57:05.901Z,74.33
2019-04-06T23:59:32.776Z,74.29
